Time;durP1;ratioP1;P1;durP2;ratioP2;P2;SDS_P1;SDS_P2;PMS_P1;PMS_P2;Temp;Humidity;BMP_temperature;BMP_pressure;BME280_temperature;BME280_humidity;BME280_pressure;Samples;Min_cycle;Max_cycle;Signal;HPM_P1;HPM_P2
2022/10/07 00:00:15;;;;;;;12.47;4.30;;;;;;;;;;6246639;22;20253;-86
2022/10/07 00:02:43;;;;;;;13.00;3.20;;;;;;;;;;6271037;22;20197;-87
2022/10/07 00:05:10;;;;;;;11.17;3.57;;;;;;;;;;6272921;22;20181;-86
2022/10/07 00:07:37;;;;;;;12.10;3.70;;;;;;;;;;6271749;22;20170;-87
2022/10/07 00:10:07;;;;;;;13.83;3.67;;;;;;;;;;6272363;22;20174;-86
2022/10/07 00:12:34;;;;;;;14.97;3.57;;;;;;;;;;6269845;22;20185;-87
2022/10/07 00:15:02;;;;;;;9.43;3.83;;;;;;;;;;6271218;22;20178;-86
2022/10/07 00:17:29;;;;;;;14.17;3.40;;;;;;;;;;6243743;22;20744;-87
2022/10/07 00:19:57;;;;;;;12.17;4.73;;;;;;;;;;6270567;22;20550;-87
2022/10/07 00:22:24;;;;;;;18.20;4.53;;;;;;;;;;6243680;22;20676;-87
2022/10/07 00:24:51;;;;;;;16.77;3.57;;;;;;;;;;6270999;22;20173;-86
2022/10/07 00:27:20;;;;;;;15.03;3.80;;;;;;;;;;6271713;22;20181;-87
2022/10/07 00:29:49;;;;;;;11.80;3.57;;;;;;;;;;6271239;22;20220;-86
2022/10/07 00:32:17;;;;;;;12.30;3.70;;;;;;;;;;6245153;22;20184;-87
2022/10/07 00:34:44;;;;;;;10.80;3.87;;;;;;;;;;6272226;22;20200;-87
2022/10/07 00:37:11;;;;;;;13.53;3.97;;;;;;;;;;6245737;22;20235;-86
2022/10/07 00:39:39;;;;;;;9.77;3.80;;;;;;;;;;6272106;22;20174;-87
2022/10/07 00:42:06;;;;;;;9.20;3.30;;;;;;;;;;6270828;22;20201;-86
2022/10/07 00:44:38;;;;;;;9.70;3.50;;;;;;;;;;6270812;22;20205;-87
2022/10/07 00:47:07;;;;;;;10.87;3.87;;;;;;;;;;6244808;22;20238;-87
2022/10/07 00:49:40;;;;;;;13.53;3.43;;;;;;;;;;6272241;22;20204;-86
2022/10/07 00:52:08;;;;;;;10.73;3.47;;;;;;;;;;6271639;22;20158;-86
2022/10/07 00:54:36;;;;;;;9.47;3.37;;;;;;;;;;6271453;22;20194;-86
2022/10/07 00:57:03;;;;;;;12.73;3.90;;;;;;;;;;6245707;22;20528;-86
2022/10/07 00:59:31;;;;;;;12.00;3.63;;;;;;;;;;6271843;22;20184;-86
2022/10/07 01:02:01;;;;;;;17.77;4.47;;;;;;;;;;6244671;22;20225;-87
2022/10/07 01:04:28;;;;;;;10.20;4.00;;;;;;;;;;6244811;22;20193;-88
2022/10/07 01:06:58;;;;;;;17.87;3.60;;;;;;;;;;6271078;22;20636;-87
2022/10/07 01:09:26;;;;;;;8.47;3.37;;;;;;;;;;6244403;22;20177;-86
2022/10/07 01:11:57;;;;;;;10.10;3.73;;;;;;;;;;6272587;22;20174;-88
2022/10/07 01:14:28;;;;;;;7.63;2.90;;;;;;;;;;6271744;22;20194;-88
2022/10/07 01:17:00;;;;;;;10.30;3.53;;;;;;;;;;6273268;22;20162;-88
2022/10/07 01:19:37;;;;;;;11.23;3.30;;;;;;;;;;6273530;22;20162;-90
2022/10/07 01:22:11;;;;;;;14.50;3.70;;;;;;;;;;6248014;22;20189;-90
2022/10/07 01:24:41;;;;;;;11.83;3.20;;;;;;;;;;6273337;22;20244;-89
2022/10/07 01:27:14;;;;;;;12.60;3.77;;;;;;;;;;6274425;22;20643;-88
2022/10/07 01:29:44;;;;;;;11.27;3.00;;;;;;;;;;6274639;22;20245;-89
2022/10/07 01:32:13;;;;;;;9.63;3.40;;;;;;;;;;6245595;22;20235;-89
2022/10/07 01:34:43;;;;;;;9.57;3.27;;;;;;;;;;6246722;22;20208;-89
2022/10/07 01:37:13;;;;;;;10.27;3.47;;;;;;;;;;6273233;22;20257;-88
2022/10/07 01:39:43;;;;;;;10.70;3.20;;;;;;;;;;6246491;22;20235;-88
2022/10/07 01:42:12;;;;;;;12.30;3.47;;;;;;;;;;6271542;22;20278;-87
2022/10/07 01:44:39;;;;;;;7.20;3.17;;;;;;;;;;6270432;22;20262;-89
2022/10/07 01:47:07;;;;;;;10.67;3.30;;;;;;;;;;6244291;22;20181;-89
2022/10/07 01:49:34;;;;;;;10.17;3.20;;;;;;;;;;6270627;22;20460;-89
2022/10/07 01:52:18;;;;;;;8.40;3.20;;;;;;;;;;6269881;22;20657;-89
2022/10/07 01:54:52;;;;;;;8.53;3.23;;;;;;;;;;6243156;22;20201;-88
2022/10/07 01:57:26;;;;;;;9.23;3.23;;;;;;;;;;6242496;22;20176;-89
2022/10/07 02:00:04;;;;;;;8.23;2.80;;;;;;;;;;6271153;22;20165;-90
2022/10/07 02:02:37;;;;;;;7.97;2.80;;;;;;;;;;6269879;22;20254;-88
2022/10/07 02:05:12;;;;;;;11.97;3.03;;;;;;;;;;6244475;22;20634;-89
2022/10/07 02:07:44;;;;;;;11.40;3.17;;;;;;;;;;6271241;22;20184;-90
2022/10/07 02:10:13;;;;;;;9.03;3.03;;;;;;;;;;6272701;22;20162;-90
2022/10/07 02:12:44;;;;;;;8.43;3.13;;;;;;;;;;6271409;22;20172;-90
2022/10/07 02:15:15;;;;;;;13.83;3.57;;;;;;;;;;6272279;22;20166;-90
2022/10/07 02:17:45;;;;;;;14.47;3.73;;;;;;;;;;6270974;22;20181;-90
2022/10/07 02:20:14;;;;;;;10.70;3.10;;;;;;;;;;6271660;22;20192;-90
2022/10/07 02:22:43;;;;;;;9.93;3.03;;;;;;;;;;6269966;22;20592;-90
2022/10/07 02:25:11;;;;;;;11.70;3.20;;;;;;;;;;6271441;22;20515;-89
2022/10/07 02:27:39;;;;;;;12.33;3.30;;;;;;;;;;6270769;22;20173;-90
2022/10/07 02:30:11;;;;;;;8.13;3.10;;;;;;;;;;6270768;22;20708;-89
2022/10/07 02:32:40;;;;;;;10.47;2.57;;;;;;;;;;6243682;22;20180;-89
2022/10/07 02:35:12;;;;;;;6.83;2.57;;;;;;;;;;6271417;22;20174;-89
2022/10/07 02:37:40;;;;;;;9.30;3.47;;;;;;;;;;6244502;22;20182;-88
2022/10/07 02:40:08;;;;;;;10.47;3.07;;;;;;;;;;6271088;22;20204;-88
2022/10/07 02:42:38;;;;;;;10.53;2.80;;;;;;;;;;6270532;22;20272;-89
2022/10/07 02:45:12;;;;;;;7.17;3.00;;;;;;;;;;6271358;22;20166;-89
2022/10/07 02:47:42;;;;;;;8.13;2.83;;;;;;;;;;6270202;22;20235;-89
2022/10/07 02:50:11;;;;;;;10.43;2.83;;;;;;;;;;6271595;22;20178;-89
2022/10/07 02:52:40;;;;;;;8.50;2.50;;;;;;;;;;6270513;22;20189;-89
2022/10/07 02:55:08;;;;;;;7.17;2.37;;;;;;;;;;6271520;22;20174;-88
2022/10/07 02:57:38;;;;;;;9.50;3.20;;;;;;;;;;6275808;22;20173;-89
2022/10/07 03:00:08;;;;;;;9.50;3.97;;;;;;;;;;6291991;22;20208;-88
2022/10/07 03:02:37;;;;;;;7.47;2.37;;;;;;;;;;6279424;22;20253;-88
2022/10/07 03:05:07;;;;;;;7.93;2.37;;;;;;;;;;6273493;22;20263;-89
2022/10/07 03:07:36;;;;;;;6.17;2.60;;;;;;;;;;6271751;22;20499;-90
2022/10/07 03:10:04;;;;;;;8.50;2.70;;;;;;;;;;6245066;22;20185;-88
2022/10/07 03:12:31;;;;;;;5.47;2.20;;;;;;;;;;6271994;22;20177;-88
2022/10/07 03:14:59;;;;;;;9.30;2.80;;;;;;;;;;6273252;22;20178;-89
2022/10/07 03:17:26;;;;;;;6.87;2.60;;;;;;;;;;6272892;22;20713;-88
2022/10/07 03:19:53;;;;;;;12.43;2.40;;;;;;;;;;6273465;22;20188;-88
2022/10/07 03:22:22;;;;;;;9.03;2.90;;;;;;;;;;6246358;22;20231;-89
2022/10/07 03:24:49;;;;;;;6.50;2.27;;;;;;;;;;6244784;22;20255;-88
2022/10/07 03:27:17;;;;;;;8.33;2.57;;;;;;;;;;6274769;22;20174;-88
2022/10/07 03:29:47;;;;;;;9.03;2.80;;;;;;;;;;6273876;22;20180;-88
2022/10/07 03:32:15;;;;;;;6.73;2.40;;;;;;;;;;6272192;22;20633;-87
2022/10/07 03:34:42;;;;;;;9.70;2.60;;;;;;;;;;6272397;22;20735;-88
2022/10/07 03:37:11;;;;;;;6.27;2.23;;;;;;;;;;6272222;22;20184;-88
2022/10/07 03:39:42;;;;;;;8.50;2.50;;;;;;;;;;6245702;22;20201;-87
2022/10/07 03:42:10;;;;;;;11.97;3.13;;;;;;;;;;6246159;22;20177;-88
2022/10/07 03:44:37;;;;;;;10.77;3.70;;;;;;;;;;6272220;22;20205;-88
2022/10/07 03:47:04;;;;;;;9.77;2.73;;;;;;;;;;6272464;22;20192;-88
2022/10/07 03:49:31;;;;;;;7.23;2.60;;;;;;;;;;6273816;22;20184;-88
2022/10/07 03:51:59;;;;;;;7.57;2.87;;;;;;;;;;6272355;22;20446;-88
2022/10/07 03:54:28;;;;;;;11.47;3.67;;;;;;;;;;6273424;22;20194;-89
2022/10/07 03:56:59;;;;;;;11.07;3.53;;;;;;;;;;6273387;22;20177;-88
2022/10/07 03:59:26;;;;;;;7.07;3.10;;;;;;;;;;6273362;22;20165;-88
2022/10/07 04:01:54;;;;;;;15.40;3.47;;;;;;;;;;6271877;22;20648;-88
2022/10/07 04:04:21;;;;;;;9.87;3.50;;;;;;;;;;6247025;22;20255;-89
2022/10/07 04:06:48;;;;;;;11.60;3.57;;;;;;;;;;6246277;22;20174;-88
2022/10/07 04:09:16;;;;;;;9.07;3.17;;;;;;;;;;6272810;22;20514;-89
2022/10/07 04:11:43;;;;;;;10.17;2.80;;;;;;;;;;6245375;22;20197;-89
2022/10/07 04:14:13;;;;;;;17.23;3.60;;;;;;;;;;6272670;22;20205;-89
2022/10/07 04:16:41;;;;;;;19.13;4.17;;;;;;;;;;6270590;22;20168;-88
2022/10/07 04:19:08;;;;;;;19.90;4.10;;;;;;;;;;6271654;22;20528;-88
2022/10/07 04:21:36;;;;;;;11.70;3.50;;;;;;;;;;6270908;22;20668;-88
2022/10/07 04:24:03;;;;;;;15.67;4.10;;;;;;;;;;6270441;22;20198;-87
2022/10/07 04:26:31;;;;;;;23.37;4.20;;;;;;;;;;6271562;22;20176;-88
2022/10/07 04:28:58;;;;;;;17.80;3.93;;;;;;;;;;6272252;22;20543;-88
2022/10/07 04:31:27;;;;;;;13.77;3.83;;;;;;;;;;6271260;22;20173;-89
2022/10/07 04:33:55;;;;;;;23.53;4.40;;;;;;;;;;6270099;22;20216;-88
2022/10/07 04:36:23;;;;;;;16.00;3.87;;;;;;;;;;6269911;22;20180;-88
2022/10/07 04:38:51;;;;;;;17.40;4.07;;;;;;;;;;6269229;22;20528;-87
2022/10/07 04:41:18;;;;;;;13.23;4.07;;;;;;;;;;6270448;22;20518;-88
2022/10/07 04:43:45;;;;;;;13.27;4.30;;;;;;;;;;6270902;22;20724;-88
2022/10/07 04:46:13;;;;;;;17.37;4.03;;;;;;;;;;6270291;22;20176;-87
2022/10/07 04:48:44;;;;;;;19.47;3.87;;;;;;;;;;6271135;22;20704;-88
2022/10/07 04:51:11;;;;;;;13.83;3.97;;;;;;;;;;6272550;22;20208;-88
2022/10/07 04:53:39;;;;;;;13.33;3.97;;;;;;;;;;6270768;22;20189;-89
2022/10/07 04:56:08;;;;;;;17.03;4.10;;;;;;;;;;6272776;22;20522;-88
2022/10/07 04:58:36;;;;;;;13.57;3.87;;;;;;;;;;6245041;22;20558;-90
2022/10/07 05:01:08;;;;;;;10.03;4.17;;;;;;;;;;6272008;22;20180;-90
2022/10/07 05:03:37;;;;;;;13.63;4.27;;;;;;;;;;6271989;22;20200;-89
2022/10/07 05:06:07;;;;;;;14.70;4.20;;;;;;;;;;6246031;22;20243;-89
2022/10/07 05:08:34;;;;;;;18.10;4.80;;;;;;;;;;6271532;22;20166;-89
2022/10/07 05:11:02;;;;;;;17.37;4.60;;;;;;;;;;6271978;22;20174;-88
2022/10/07 05:13:30;;;;;;;15.03;4.17;;;;;;;;;;6245715;22;20211;-90
2022/10/07 05:15:58;;;;;;;17.50;4.60;;;;;;;;;;6272089;22;20178;-85
2022/10/07 05:18:26;;;;;;;21.53;5.17;;;;;;;;;;6270822;22;20180;-86
2022/10/07 05:20:53;;;;;;;16.70;4.37;;;;;;;;;;6243035;22;20192;-85
2022/10/07 05:23:24;;;;;;;22.20;4.87;;;;;;;;;;6268577;22;20200;-85
2022/10/07 05:25:57;;;;;;;13.03;4.43;;;;;;;;;;6270577;22;20173;-85
2022/10/07 05:28:25;;;;;;;11.60;4.07;;;;;;;;;;6270649;22;20244;-85
2022/10/07 05:31:01;;;;;;;23.33;4.27;;;;;;;;;;6271227;22;20696;-85
2022/10/07 05:33:30;;;;;;;14.67;3.77;;;;;;;;;;6270158;22;20197;-84
2022/10/07 05:35:58;;;;;;;11.07;3.23;;;;;;;;;;6245931;22;20212;-84
2022/10/07 05:38:27;;;;;;;13.67;3.20;;;;;;;;;;6272164;22;20669;-84
2022/10/07 05:40:58;;;;;;;13.00;3.50;;;;;;;;;;6271682;22;20201;-84
2022/10/07 05:43:26;;;;;;;8.17;3.23;;;;;;;;;;6270855;22;20197;-83
2022/10/07 05:46:12;;;;;;;8.73;3.40;;;;;;;;;;6271338;22;20181;-85
2022/10/07 05:48:39;;;;;;;12.30;3.20;;;;;;;;;;6269696;22;20229;-83
2022/10/07 05:51:08;;;;;;;7.37;3.10;;;;;;;;;;6270906;22;20181;-83
2022/10/07 05:53:40;;;;;;;14.17;3.93;;;;;;;;;;6243251;22;20186;-84
2022/10/07 05:56:08;;;;;;;11.97;3.90;;;;;;;;;;6243679;22;20239;-85
2022/10/07 05:58:35;;;;;;;10.43;3.43;;;;;;;;;;6269934;22;20170;-84
2022/10/07 06:01:05;;;;;;;15.77;3.50;;;;;;;;;;6243619;22;20507;-84
2022/10/07 06:03:33;;;;;;;12.00;3.57;;;;;;;;;;6242926;22;20281;-83
2022/10/07 06:06:00;;;;;;;15.90;3.97;;;;;;;;;;6271010;22;20178;-84
2022/10/07 06:08:29;;;;;;;12.40;4.30;;;;;;;;;;6271383;22;20177;-84
2022/10/07 06:13:55;;;;;;;15.80;3.43;;;;;;;;;;6214581;22;20189;-85
2022/10/07 06:16:22;;;;;;;19.27;4.43;;;;;;;;;;6269894;22;20181;-84
2022/10/07 06:18:51;;;;;;;15.60;3.90;;;;;;;;;;6269776;22;20255;-84
2022/10/07 06:21:18;;;;;;;14.23;4.70;;;;;;;;;;6270476;22;20184;-84
2022/10/07 06:23:51;;;;;;;9.17;3.60;;;;;;;;;;6269781;22;20536;-85
2022/10/07 06:26:20;;;;;;;15.03;3.97;;;;;;;;;;6269872;22;20256;-85
2022/10/07 06:28:48;;;;;;;20.20;4.30;;;;;;;;;;6268917;22;20180;-85
2022/10/07 06:31:20;;;;;;;12.50;3.30;;;;;;;;;;6267947;22;20528;-84
2022/10/07 06:33:49;;;;;;;13.13;3.90;;;;;;;;;;6243647;22;20201;-84
2022/10/07 06:36:16;;;;;;;14.20;4.07;;;;;;;;;;6270720;22;20173;-84
2022/10/07 06:38:47;;;;;;;13.27;4.10;;;;;;;;;;6241926;22;20223;-84
2022/10/07 06:41:14;;;;;;;15.83;4.63;;;;;;;;;;6243497;22;20174;-84
2022/10/07 06:43:43;;;;;;;19.53;4.50;;;;;;;;;;6269702;22;20198;-84
2022/10/07 06:46:13;;;;;;;19.13;4.67;;;;;;;;;;6273401;22;20509;-84
2022/10/07 06:48:41;;;;;;;18.87;4.60;;;;;;;;;;6272210;22;20660;-84
2022/10/07 06:51:09;;;;;;;18.10;5.43;;;;;;;;;;6273131;22;20184;-84
2022/10/07 06:53:37;;;;;;;19.63;4.87;;;;;;;;;;6273527;22;20268;-85
2022/10/07 06:56:04;;;;;;;17.10;5.60;;;;;;;;;;6273476;22;20170;-85
2022/10/07 06:58:32;;;;;;;13.93;3.90;;;;;;;;;;6273693;22;20356;-85
2022/10/07 07:01:01;;;;;;;17.73;4.47;;;;;;;;;;6272993;22;20173;-84
2022/10/07 07:03:29;;;;;;;14.33;4.20;;;;;;;;;;6272276;22;20193;-85
2022/10/07 07:05:56;;;;;;;14.37;4.03;;;;;;;;;;6273837;22;20532;-84
2022/10/07 07:08:26;;;;;;;12.23;3.87;;;;;;;;;;6272713;22;20178;-84
2022/10/07 07:10:53;;;;;;;9.67;3.23;;;;;;;;;;6272868;22;20178;-84
2022/10/07 07:13:21;;;;;;;15.40;4.23;;;;;;;;;;6245270;22;20193;-85
2022/10/07 07:15:55;;;;;;;11.13;3.37;;;;;;;;;;6272913;22;20261;-84
2022/10/07 07:18:24;;;;;;;14.57;4.10;;;;;;;;;;6272780;22;20237;-85
2022/10/07 07:20:51;;;;;;;10.70;3.67;;;;;;;;;;6273256;22;20174;-84
2022/10/07 07:23:19;;;;;;;12.47;3.80;;;;;;;;;;6244922;22;20200;-84
2022/10/07 07:25:46;;;;;;;14.03;3.00;;;;;;;;;;6246537;22;20197;-86
2022/10/07 07:28:14;;;;;;;13.33;3.47;;;;;;;;;;6271826;22;20653;-84
2022/10/07 07:30:41;;;;;;;5.90;2.77;;;;;;;;;;6271525;22;20176;-85
2022/10/07 07:33:09;;;;;;;7.77;2.73;;;;;;;;;;6273170;22;20198;-86
2022/10/07 07:35:40;;;;;;;7.40;2.53;;;;;;;;;;6271653;22;20629;-86
2022/10/07 07:38:07;;;;;;;5.43;2.70;;;;;;;;;;6271757;22;20180;-87
2022/10/07 07:40:36;;;;;;;5.50;3.30;;;;;;;;;;6270617;22;20256;-86
2022/10/07 07:43:04;;;;;;;9.07;2.90;;;;;;;;;;6270293;22;20202;-87
2022/10/07 07:45:32;;;;;;;5.60;2.50;;;;;;;;;;6271585;22;20189;-87
2022/10/07 07:47:59;;;;;;;6.43;2.00;;;;;;;;;;6269686;22;20283;-87
2022/10/07 07:50:27;;;;;;;4.93;2.47;;;;;;;;;;6268962;22;20668;-86
2022/10/07 07:52:56;;;;;;;9.27;2.43;;;;;;;;;;6270020;22;20198;-87
2022/10/07 07:55:23;;;;;;;9.27;1.93;;;;;;;;;;6269986;22;20169;-87
2022/10/07 07:57:51;;;;;;;5.67;2.00;;;;;;;;;;6244048;22;20744;-87
2022/10/07 08:00:18;;;;;;;7.10;1.50;;;;;;;;;;6274244;22;20173;-87
2022/10/07 08:02:46;;;;;;;3.43;1.43;;;;;;;;;;6271300;22;20174;-87
2022/10/07 08:05:13;;;;;;;6.10;2.03;;;;;;;;;;6271357;22;20701;-86
2022/10/07 08:07:41;;;;;;;6.37;2.80;;;;;;;;;;6270694;22;20193;-87
2022/10/07 08:10:10;;;;;;;4.97;2.10;;;;;;;;;;6271583;22;20255;-87
2022/10/07 08:12:38;;;;;;;12.27;3.07;;;;;;;;;;6270863;22;20181;-86
2022/10/07 08:15:06;;;;;;;7.20;2.50;;;;;;;;;;6271792;22;20570;-87
2022/10/07 08:17:33;;;;;;;7.60;2.27;;;;;;;;;;6271281;22;20174;-87
2022/10/07 08:20:01;;;;;;;7.50;2.80;;;;;;;;;;6244093;22;20201;-88
2022/10/07 08:22:28;;;;;;;8.47;2.40;;;;;;;;;;6270807;22;20529;-87
2022/10/07 08:24:58;;;;;;;9.80;2.50;;;;;;;;;;6270367;22;20197;-87
2022/10/07 08:27:27;;;;;;;12.60;3.13;;;;;;;;;;6270348;22;20178;-88
2022/10/07 08:29:54;;;;;;;10.67;2.80;;;;;;;;;;6268615;22;20235;-86
2022/10/07 08:32:22;;;;;;;19.17;3.20;;;;;;;;;;6270048;22;20523;-87
2022/10/07 08:34:49;;;;;;;11.17;2.80;;;;;;;;;;6270193;22;20534;-88
2022/10/07 08:37:16;;;;;;;9.50;2.10;;;;;;;;;;6243251;22;20243;-87
2022/10/07 08:39:43;;;;;;;13.87;2.57;;;;;;;;;;6269361;22;20668;-88
2022/10/07 08:42:15;;;;;;;10.50;2.67;;;;;;;;;;6270258;22;20535;-88
2022/10/07 08:44:45;;;;;;;10.57;2.20;;;;;;;;;;6269039;22;20216;-86
2022/10/07 08:47:17;;;;;;;5.87;2.10;;;;;;;;;;6270532;22;20627;-87
2022/10/07 08:49:52;;;;;;;6.00;1.90;;;;;;;;;;6269581;22;20166;-88
2022/10/07 08:52:25;;;;;;;8.77;2.00;;;;;;;;;;6243387;22;20184;-85
2022/10/07 08:54:53;;;;;;;7.40;1.87;;;;;;;;;;6242008;22;20182;-86
2022/10/07 08:57:25;;;;;;;5.63;1.50;;;;;;;;;;6241921;22;20649;-86
2022/10/07 08:59:56;;;;;;;5.67;1.30;;;;;;;;;;6244980;22;20200;-85
2022/10/07 09:02:28;;;;;;;7.83;1.70;;;;;;;;;;6220427;22;20178;-87
2022/10/07 09:05:00;;;;;;;3.17;1.50;;;;;;;;;;6271941;22;20184;-86
2022/10/07 09:07:32;;;;;;;10.23;2.40;;;;;;;;;;6246035;22;20162;-86
2022/10/07 09:10:02;;;;;;;11.00;2.13;;;;;;;;;;6271895;22;20638;-87
2022/10/07 09:12:36;;;;;;;8.37;2.33;;;;;;;;;;6270669;22;20174;-86
2022/10/07 09:15:06;;;;;;;8.07;2.00;;;;;;;;;;6271342;22;20165;-86
2022/10/07 09:17:36;;;;;;;14.10;1.90;;;;;;;;;;6271671;22;20174;-86
2022/10/07 09:20:06;;;;;;;7.60;1.60;;;;;;;;;;6272601;22;20260;-86
2022/10/07 09:22:36;;;;;;;10.33;2.03;;;;;;;;;;6270815;22;20219;-87
2022/10/07 09:25:17;;;;;;;8.10;2.00;;;;;;;;;;6270504;22;20185;-86
2022/10/07 09:27:44;;;;;;;8.00;1.77;;;;;;;;;;6270552;22;20622;-87
2022/10/07 09:30:15;;;;;;;8.63;2.17;;;;;;;;;;6271382;22;20181;-88
2022/10/07 09:32:44;;;;;;;5.60;1.73;;;;;;;;;;6271573;22;20556;-87
2022/10/07 09:35:13;;;;;;;11.37;2.20;;;;;;;;;;6271697;22;20177;-87
2022/10/07 09:37:54;;;;;;;8.13;1.90;;;;;;;;;;6271064;22;20173;-87
2022/10/07 09:40:23;;;;;;;6.90;1.83;;;;;;;;;;6268107;22;20511;-88
2022/10/07 09:42:51;;;;;;;13.30;1.70;;;;;;;;;;6243842;22;20194;-86
2022/10/07 09:45:22;;;;;;;5.30;1.37;;;;;;;;;;6271202;22;20220;-87
2022/10/07 09:47:52;;;;;;;6.07;1.70;;;;;;;;;;6242037;22;20174;-87
2022/10/07 09:50:35;;;;;;;8.30;1.73;;;;;;;;;;6268616;22;20181;-86
2022/10/07 09:53:02;;;;;;;11.40;2.20;;;;;;;;;;6270403;22;20236;-89
2022/10/07 09:55:36;;;;;;;9.07;1.93;;;;;;;;;;6271677;22;20258;-89
2022/10/07 09:58:05;;;;;;;5.17;1.60;;;;;;;;;;6271568;22;20166;-89
2022/10/07 10:00:41;;;;;;;12.73;2.27;;;;;;;;;;6271993;22;20582;-89
2022/10/07 10:03:09;;;;;;;10.90;2.30;;;;;;;;;;6243263;22;20258;-89
2022/10/07 10:05:37;;;;;;;10.20;2.03;;;;;;;;;;6241689;22;20197;-88
2022/10/07 10:08:06;;;;;;;11.30;2.10;;;;;;;;;;6242202;22;20173;-87
2022/10/07 10:10:34;;;;;;;12.70;3.67;;;;;;;;;;6267081;22;20177;-89
2022/10/07 10:13:02;;;;;;;9.47;2.37;;;;;;;;;;6241632;22;20584;-88
2022/10/07 10:15:39;;;;;;;13.63;1.87;;;;;;;;;;6271336;22;20548;-88
2022/10/07 10:18:27;;;;;;;12.20;4.97;;;;;;;;;;6271422;22;20158;-88
2022/10/07 10:20:54;;;;;;;8.73;2.00;;;;;;;;;;6241484;22;20181;-87
2022/10/07 10:23:29;;;;;;;20.93;7.47;;;;;;;;;;6269853;22;20197;-88
2022/10/07 10:28:53;;;;;;;8.60;1.57;;;;;;;;;;6271335;22;20157;-88
2022/10/07 10:31:28;;;;;;;16.40;5.90;;;;;;;;;;6270074;22;20179;-88
2022/10/07 10:34:00;;;;;;;7.17;2.00;;;;;;;;;;6243987;22;20280;-88
2022/10/07 10:36:29;;;;;;;5.77;1.87;;;;;;;;;;6271269;22;20922;-88
2022/10/07 10:39:00;;;;;;;7.70;1.10;;;;;;;;;;6219276;22;20216;-87
2022/10/07 10:41:31;;;;;;;9.97;1.60;;;;;;;;;;6271319;22;20498;-89
2022/10/07 10:44:10;;;;;;;8.47;1.37;;;;;;;;;;6270992;22;20232;-88
2022/10/07 10:46:44;;;;;;;7.63;1.40;;;;;;;;;;6271125;22;20510;-88
2022/10/07 10:49:18;;;;;;;6.73;1.27;;;;;;;;;;6271179;22;20223;-88
2022/10/07 10:51:52;;;;;;;7.50;1.40;;;;;;;;;;6270469;22;20666;-89
2022/10/07 10:54:25;;;;;;;9.70;1.00;;;;;;;;;;6272752;22;20225;-88
2022/10/07 10:56:54;;;;;;;7.90;1.40;;;;;;;;;;6271007;22;20175;-89
2022/10/07 10:59:36;;;;;;;8.17;1.10;;;;;;;;;;6272489;22;20177;-88
2022/10/07 11:02:12;;;;;;;5.93;1.17;;;;;;;;;;6271585;22;20219;-90
2022/10/07 11:04:44;;;;;;;6.53;1.30;;;;;;;;;;6271867;22;20197;-90
2022/10/07 11:07:17;;;;;;;4.27;0.90;;;;;;;;;;6270971;22;20176;-89
2022/10/07 11:09:46;;;;;;;5.80;0.90;;;;;;;;;;6271488;22;20162;-89
2022/10/07 11:12:21;;;;;;;8.47;1.53;;;;;;;;;;6271234;22;20791;-89
2022/10/07 11:14:50;;;;;;;8.40;1.20;;;;;;;;;;6271695;22;20190;-87
2022/10/07 11:17:18;;;;;;;5.53;1.20;;;;;;;;;;6271256;22;20204;-87
2022/10/07 11:19:51;;;;;;;9.50;1.67;;;;;;;;;;6273886;22;20177;-91
2022/10/07 11:22:23;;;;;;;11.40;1.30;;;;;;;;;;6275628;22;20173;-89
2022/10/07 11:24:55;;;;;;;9.37;1.37;;;;;;;;;;6273954;22;20469;-88
2022/10/07 11:27:24;;;;;;;3.40;0.97;;;;;;;;;;6274013;22;20609;-87
2022/10/07 11:29:55;;;;;;;4.30;0.80;;;;;;;;;;6272293;22;20184;-87
2022/10/07 11:32:24;;;;;;;5.17;1.00;;;;;;;;;;6273233;22;20158;-88
2022/10/07 11:34:56;;;;;;;5.23;1.00;;;;;;;;;;6272514;22;20714;-87
2022/10/07 11:37:26;;;;;;;6.73;0.87;;;;;;;;;;6273869;22;20168;-86
2022/10/07 11:39:54;;;;;;;10.57;0.87;;;;;;;;;;6273362;22;20169;-88
2022/10/07 11:42:23;;;;;;;3.17;0.73;;;;;;;;;;6249026;22;20199;-90
2022/10/07 11:44:54;;;;;;;8.63;1.17;;;;;;;;;;6278243;22;20284;-88
2022/10/07 11:47:24;;;;;;;8.13;1.00;;;;;;;;;;6280591;22;20180;-91
2022/10/07 11:49:56;;;;;;;6.23;0.90;;;;;;;;;;6306102;22;20196;-91
2022/10/07 11:52:26;;;;;;;5.13;0.83;;;;;;;;;;6311909;22;20169;-89
2022/10/07 11:54:57;;;;;;;8.20;1.20;;;;;;;;;;6279458;22;20624;-90
2022/10/07 11:57:26;;;;;;;3.23;0.83;;;;;;;;;;6310698;22;20161;-90
2022/10/07 11:59:58;;;;;;;6.80;1.07;;;;;;;;;;6279708;22;20179;-89
2022/10/07 12:02:43;;;;;;;3.60;0.80;;;;;;;;;;6281185;22;20195;-92
2022/10/07 12:05:25;;;;;;;3.77;1.10;;;;;;;;;;6309592;22;20164;-90
2022/10/07 12:08:02;;;;;;;8.30;1.43;;;;;;;;;;6286325;22;20177;-91
2022/10/07 12:10:31;;;;;;;9.17;1.23;;;;;;;;;;6281109;22;20176;-89
2022/10/07 12:13:00;;;;;;;6.57;0.90;;;;;;;;;;6303506;22;20197;-91
2022/10/07 12:15:29;;;;;;;5.73;0.83;;;;;;;;;;6302430;22;20169;-88
2022/10/07 12:17:58;;;;;;;6.17;1.07;;;;;;;;;;6275983;22;20184;-86
2022/10/07 12:20:45;;;;;;;6.63;0.90;;;;;;;;;;6276440;22;20495;-87
2022/10/07 12:23:28;;;;;;;3.80;0.70;;;;;;;;;;6302559;22;20192;-88
2022/10/07 12:25:58;;;;;;;14.43;5.17;;;;;;;;;;6302742;22;20581;-89
2022/10/07 12:28:28;;;;;;;6.77;1.00;;;;;;;;;;6275380;22;20212;-89
2022/10/07 12:30:58;;;;;;;10.27;1.33;;;;;;;;;;6251441;22;20639;-89
2022/10/07 12:33:29;;;;;;;3.83;1.30;;;;;;;;;;6302585;22;20281;-86
2022/10/07 12:35:56;;;;;;;5.87;0.80;;;;;;;;;;6302960;22;20215;-88
2022/10/07 12:38:25;;;;;;;8.27;1.20;;;;;;;;;;6302327;22;20168;-87
2022/10/07 12:40:58;;;;;;;6.47;1.10;;;;;;;;;;6303035;22;20226;-89
2022/10/07 12:43:33;;;;;;;7.33;1.40;;;;;;;;;;6278057;22;20236;-90
2022/10/07 12:46:01;;;;;;;6.83;1.10;;;;;;;;;;6298057;22;20646;-90
2022/10/07 12:48:32;;;;;;;9.53;1.40;;;;;;;;;;6301887;22;20709;-90
2022/10/07 12:51:01;;;;;;;3.90;0.73;;;;;;;;;;6304708;22;20623;-90
2022/10/07 12:53:33;;;;;;;5.57;1.03;;;;;;;;;;6275365;22;20201;-91
2022/10/07 12:56:01;;;;;;;5.90;1.13;;;;;;;;;;6305955;22;20240;-89
2022/10/07 13:01:29;;;;;;;10.13;1.27;;;;;;;;;;6303469;22;20199;-88
2022/10/07 13:04:15;;;;;;;4.00;1.00;;;;;;;;;;6300083;22;20284;-89
2022/10/07 13:06:58;;;;;;;5.87;1.03;;;;;;;;;;6273824;22;20189;-89
2022/10/07 13:09:37;;;;;;;8.77;1.03;;;;;;;;;;6304016;22;20164;-89
2022/10/07 13:12:18;;;;;;;6.23;1.03;;;;;;;;;;6303535;22;20236;-89
2022/10/07 13:15:00;;;;;;;4.97;0.80;;;;;;;;;;6279012;22;20215;-89
2022/10/07 13:17:43;;;;;;;7.10;1.00;;;;;;;;;;6302261;22;20222;-90
2022/10/07 13:20:28;;;;;;;4.30;0.90;;;;;;;;;;6305884;22;20236;-88
2022/10/07 13:22:56;;;;;;;6.60;0.70;;;;;;;;;;6303074;22;20663;-89
2022/10/07 13:25:26;;;;;;;8.17;1.17;;;;;;;;;;6302877;22;20176;-88
2022/10/07 13:27:55;;;;;;;8.67;1.30;;;;;;;;;;6276214;22;20235;-90
2022/10/07 13:30:35;;;;;;;6.43;1.10;;;;;;;;;;6304046;22;20266;-90
2022/10/07 13:33:30;;;;;;;5.30;1.10;;;;;;;;;;6304870;22;20245;-90
2022/10/07 13:36:09;;;;;;;3.77;0.90;;;;;;;;;;6218186;22;20176;-89
2022/10/07 13:38:36;;;;;;;4.70;1.00;;;;;;;;;;6305947;22;20177;-91
2022/10/07 13:41:06;;;;;;;3.30;0.70;;;;;;;;;;6303047;22;20173;-92
2022/10/07 13:43:37;;;;;;;4.33;0.83;;;;;;;;;;6290869;22;20296;-90
2022/10/07 13:46:08;;;;;;;5.33;0.90;;;;;;;;;;6245274;22;20686;-92
2022/10/07 13:48:37;;;;;;;7.03;0.80;;;;;;;;;;6245258;22;20205;-90
2022/10/07 13:51:06;;;;;;;7.87;1.13;;;;;;;;;;6270599;22;20599;-91
2022/10/07 13:53:35;;;;;;;6.17;1.20;;;;;;;;;;6245799;22;20193;-90
2022/10/07 13:56:07;;;;;;;7.33;1.27;;;;;;;;;;6273070;22;20513;-91
2022/10/07 13:58:38;;;;;;;2.47;0.80;;;;;;;;;;6245483;22;20181;-88
2022/10/07 14:01:06;;;;;;;7.17;1.00;;;;;;;;;;6272303;22;20165;-90
2022/10/07 14:03:34;;;;;;;6.17;1.43;;;;;;;;;;6272512;22;20193;-89
2022/10/07 14:06:02;;;;;;;8.03;1.20;;;;;;;;;;6246488;22;20505;-89
2022/10/07 14:08:30;;;;;;;7.20;1.10;;;;;;;;;;6272924;22;20209;-89
2022/10/07 14:11:01;;;;;;;4.70;0.90;;;;;;;;;;6272588;22;20177;-87
2022/10/07 14:13:29;;;;;;;8.17;1.67;;;;;;;;;;6271758;22;20213;-89
2022/10/07 14:15:59;;;;;;;8.17;1.27;;;;;;;;;;6272637;22;20173;-89
2022/10/07 14:18:28;;;;;;;9.63;1.23;;;;;;;;;;6245091;22;20203;-88
2022/10/07 14:20:56;;;;;;;4.93;0.90;;;;;;;;;;6271937;22;20181;-88
2022/10/07 14:23:27;;;;;;;3.27;0.90;;;;;;;;;;6271230;22;20190;-88
2022/10/07 14:25:55;;;;;;;4.07;1.00;;;;;;;;;;6245905;22;20178;-88
2022/10/07 14:28:31;;;;;;;6.07;1.40;;;;;;;;;;6272101;22;20182;-87
2022/10/07 14:37:06;;;;;;;4.87;1.17;;;;;;;;;;6233105;22;20162;-90
2022/10/07 14:39:35;;;;;;;10.03;1.00;;;;;;;;;;6272917;22;20166;-87
2022/10/07 14:42:03;;;;;;;5.63;1.17;;;;;;;;;;6272241;22;20184;-88
2022/10/07 14:44:31;;;;;;;5.47;1.17;;;;;;;;;;6272010;22;20201;-90
2022/10/07 14:47:06;;;;;;;7.23;1.03;;;;;;;;;;6270675;22;20205;-87
2022/10/07 14:49:33;;;;;;;6.83;1.23;;;;;;;;;;6272691;22;20173;-89
2022/10/07 14:52:02;;;;;;;5.07;0.90;;;;;;;;;;6244173;22;20177;-90
2022/10/07 14:54:29;;;;;;;5.10;1.10;;;;;;;;;;6274021;22;20193;-90
2022/10/07 14:56:59;;;;;;;4.27;1.20;;;;;;;;;;6247319;22;20235;-90
2022/10/07 14:59:26;;;;;;;13.47;1.40;;;;;;;;;;6248584;22;20173;-89
2022/10/07 15:01:55;;;;;;;6.53;1.73;;;;;;;;;;6244492;22;20181;-90
2022/10/07 15:04:23;;;;;;;5.63;1.20;;;;;;;;;;6271826;22;20193;-89
2022/10/07 15:06:50;;;;;;;8.67;1.30;;;;;;;;;;6274100;22;20271;-88
2022/10/07 15:09:18;;;;;;;7.20;1.53;;;;;;;;;;6273605;22;20177;-90